Time;durP1;ratioP1;P1;durP2;ratioP2;P2;SDS_P1;SDS_P2;PMS_P1;PMS_P2;Temp;Humidity;BMP_temperature;BMP_pressure;BME280_temperature;BME280_humidity;BME280_pressure;Samples;Min_cycle;Max_cycle;Signal;HPM_P1;HPM_P2
2023/08/15 00:00:21;;;;;;;8.90;4.90;;;;;;;22.39;77.28;101076.94;5115174;28;20020;-66
2023/08/15 00:02:47;;;;;;;9.50;4.20;;;;;;;22.27;77.17;101061.19;5115285;28;20024;-66
2023/08/15 00:05:12;;;;;;;9.45;4.60;;;;;;;22.29;76.80;101064.56;5115148;28;20024;-66
2023/08/15 00:07:38;;;;;;;8.95;4.50;;;;;;;22.19;77.29;101051.19;5115133;28;20022;-66
2023/08/15 00:10:03;;;;;;;8.30;4.72;;;;;;;22.05;77.03;101043.69;5112999;28;20077;-65
2023/08/15 00:12:29;;;;;;;9.05;5.03;;;;;;;22.12;77.00;101044.69;5115121;28;20478;-66
2023/08/15 00:14:54;;;;;;;11.15;5.10;;;;;;;21.88;78.01;101038.22;5114084;28;20050;-65
2023/08/15 00:17:19;;;;;;;11.85;5.00;;;;;;;21.84;77.75;101030.59;5113768;28;20032;-66
2023/08/15 00:19:47;;;;;;;9.45;4.60;;;;;;;21.89;77.72;101039.09;5114730;28;20012;-66
2023/08/15 00:22:13;;;;;;;11.18;4.65;;;;;;;21.80;78.58;101037.38;5114938;28;20379;-66
2023/08/15 00:24:38;;;;;;;9.45;4.93;;;;;;;21.87;78.26;101041.09;5114128;28;20019;-66
2023/08/15 00:27:06;;;;;;;6.20;4.20;;;;;;;21.70;77.91;101049.19;5114905;28;20521;-66
2023/08/15 00:29:31;;;;;;;12.55;4.90;;;;;;;21.60;78.83;101059.31;5114545;27;20063;-66
2023/08/15 00:31:57;;;;;;;11.75;4.53;;;;;;;21.53;79.13;101058.25;5113504;28;20039;-66
2023/08/15 00:34:24;;;;;;;11.38;5.05;;;;;;;21.37;79.66;101056.34;5113261;28;20020;-65
2023/08/15 00:36:50;;;;;;;9.80;4.78;;;;;;;21.34;79.50;101062.03;5114634;28;20035;-65
2023/08/15 00:39:15;;;;;;;11.32;5.28;;;;;;;21.39;78.57;101067.84;5113706;28;20365;-65
2023/08/15 00:41:41;;;;;;;10.27;5.30;;;;;;;21.33;78.88;101071.19;5114444;28;20049;-65
2023/08/15 00:44:06;;;;;;;12.85;5.63;;;;;;;21.21;79.47;101069.75;5113307;28;20023;-66
2023/08/15 00:46:32;;;;;;;8.95;4.90;;;;;;;21.21;78.46;101075.16;5114406;28;20068;-66
2023/08/15 00:48:58;;;;;;;7.88;5.15;;;;;;;21.18;78.23;101075.47;5112836;28;20106;-65
2023/08/15 00:51:25;;;;;;;8.23;4.90;;;;;;;21.13;78.43;101088.66;5114237;28;20059;-66
2023/08/15 00:53:51;;;;;;;12.93;4.80;;;;;;;21.07;76.90;101082.00;5112098;28;20023;-65
2023/08/15 00:56:18;;;;;;;9.35;4.43;;;;;;;21.04;77.16;101085.88;5113033;28;20081;-65
2023/08/15 00:58:44;;;;;;;9.85;4.80;;;;;;;21.03;76.29;101081.50;5112637;28;20064;-66
2023/08/15 01:01:15;;;;;;;10.43;4.38;;;;;;;20.87;76.53;101081.38;5114457;27;20032;-66
2023/08/15 01:03:41;;;;;;;11.88;4.90;;;;;;;20.80;75.38;101078.44;5114094;28;20075;-66
2023/08/15 01:06:06;;;;;;;10.25;4.50;;;;;;;20.80;73.26;101078.44;5114325;28;20035;-66
2023/08/15 01:08:32;;;;;;;13.73;4.90;;;;;;;20.77;74.12;101077.94;5113236;28;20024;-65
2023/08/15 01:11:01;;;;;;;11.25;4.78;;;;;;;20.66;73.74;101079.00;5112463;28;20081;-66
2023/08/15 01:13:44;;;;;;;11.63;4.75;;;;;;;20.73;74.22;101068.41;5113636;28;20613;-66
2023/08/15 01:16:28;;;;;;;11.18;4.25;;;;;;;20.75;74.03;101067.25;5112747;28;20080;-66
2023/08/15 01:19:22;;;;;;;11.93;5.35;;;;;;;20.79;73.67;101071.31;5113434;28;20024;-65
2023/08/15 01:21:51;;;;;;;11.05;4.72;;;;;;;20.65;72.94;101061.13;5078713;28;20043;-65
2023/08/15 01:24:20;;;;;;;9.85;4.85;;;;;;;20.58;73.94;101068.97;5113065;27;20023;-66
2023/08/15 01:26:46;;;;;;;10.27;4.45;;;;;;;20.71;73.95;101060.47;5112689;28;20098;-65
2023/08/15 01:29:11;;;;;;;12.13;4.72;;;;;;;20.59;73.86;101067.16;5113421;27;20099;-66
2023/08/15 01:31:46;;;;;;;8.13;4.13;;;;;;;20.51;73.93;101069.75;5112270;28;20382;-65
2023/08/15 01:34:20;;;;;;;7.85;4.53;;;;;;;20.58;73.57;101078.94;5112136;28;20479;-65
2023/08/15 01:36:54;;;;;;;9.40;4.45;;;;;;;20.54;73.12;101091.09;5113286;28;20456;-66
2023/08/15 01:39:28;;;;;;;14.88;4.80;;;;;;;20.52;73.40;101103.84;5112849;28;20152;-65
2023/08/15 01:41:56;;;;;;;11.05;4.47;;;;;;;20.38;73.89;101092.59;5111867;28;20019;-65
2023/08/15 01:44:22;;;;;;;10.05;4.22;;;;;;;20.30;73.40;101094.38;5113257;28;20021;-65
2023/08/15 01:46:48;;;;;;;15.30;4.95;;;;;;;20.28;73.89;101110.72;5095102;28;20020;-65
2023/08/15 01:49:14;;;;;;;13.98;4.60;;;;;;;20.28;73.31;101118.00;5112870;28;20177;-65
2023/08/15 01:51:39;;;;;;;13.98;4.70;;;;;;;20.26;73.93;101101.91;5111679;28;20043;-65
2023/08/15 01:54:05;;;;;;;9.88;4.80;;;;;;;20.32;73.50;101114.81;5111154;28;20095;-65
2023/08/15 01:56:30;;;;;;;10.65;4.40;;;;;;;20.33;73.19;101115.69;5112851;28;20039;-65
2023/08/15 01:58:58;;;;;;;9.35;4.32;;;;;;;20.31;73.49;101120.38;5112731;28;20099;-65
2023/08/15 02:01:23;;;;;;;12.68;4.97;;;;;;;20.28;73.51;101136.91;5113024;28;20024;-65
2023/08/15 02:03:49;;;;;;;12.88;4.03;;;;;;;20.30;73.51;101116.00;5111545;28;20487;-66
2023/08/15 02:06:14;;;;;;;9.98;4.25;;;;;;;20.12;73.86;101137.59;5112819;28;20038;-65
2023/08/15 02:08:40;;;;;;;8.23;3.67;;;;;;;20.18;74.07;101129.72;5094227;28;20366;-65
2023/08/15 02:11:05;;;;;;;11.38;4.80;;;;;;;20.20;74.09;101130.38;5113044;28;20112;-65
2023/08/15 02:13:33;;;;;;;12.27;4.35;;;;;;;20.08;74.12;101134.31;5112605;28;20386;-65
2023/08/15 02:15:59;;;;;;;13.15;4.78;;;;;;;20.17;73.85;101146.91;5112823;28;20024;-65
2023/08/15 02:18:26;;;;;;;11.27;4.47;;;;;;;20.14;74.44;101149.06;5111398;28;20122;-65
2023/08/15 02:20:51;;;;;;;15.45;4.60;;;;;;;20.13;74.08;101160.88;5112581;28;20015;-65
2023/08/15 02:23:17;;;;;;;9.35;4.28;;;;;;;20.12;74.29;101162.72;5112723;28;20111;-65
2023/08/15 02:25:43;;;;;;;9.55;3.67;;;;;;;19.96;75.60;101165.22;5110940;28;20466;-65
2023/08/15 02:28:08;;;;;;;13.52;4.13;;;;;;;19.94;74.74;101146.50;5111635;28;20110;-65
2023/08/15 02:30:38;;;;;;;15.57;4.70;;;;;;;19.89;75.80;101159.59;5112559;28;20031;-65
2023/08/15 02:33:08;;;;;;;13.00;4.13;;;;;;;19.98;75.08;101151.59;5111470;28;20030;-65
2023/08/15 02:35:39;;;;;;;9.88;4.05;;;;;;;19.90;76.10;101155.88;5112309;28;20031;-65
2023/08/15 02:38:04;;;;;;;11.57;4.35;;;;;;;19.84;75.79;101167.28;5112585;28;20098;-65
2023/08/15 02:40:30;;;;;;;9.27;4.03;;;;;;;19.87;75.96;101156.19;5115030;28;20094;-65
2023/08/15 02:42:55;;;;;;;12.48;4.45;;;;;;;19.67;76.81;101157.25;5115522;28;20026;-65
2023/08/15 02:45:21;;;;;;;6.97;3.70;;;;;;;19.79;77.08;101141.72;5116666;28;20059;-65
2023/08/15 02:47:46;;;;;;;11.18;4.80;;;;;;;19.56;77.72;101135.81;5116762;28;20020;-65
2023/08/15 02:50:12;;;;;;;9.07;4.20;;;;;;;19.68;77.14;101150.88;5116207;28;20027;-65
2023/08/15 02:52:37;;;;;;;11.43;4.53;;;;;;;19.67;77.70;101152.72;5116669;28;20409;-65
2023/08/15 02:55:03;;;;;;;10.75;4.28;;;;;;;19.63;77.79;101159.38;5114800;28;20063;-65
2023/08/15 02:57:31;;;;;;;12.18;4.45;;;;;;;19.63;78.22;101161.22;5115294;28;20035;-65
2023/08/15 02:59:59;;;;;;;9.20;5.05;;;;;;;19.61;78.09;101155.13;5116358;28;20019;-65
2023/08/15 03:02:25;;;;;;;8.73;4.72;;;;;;;19.51;79.11;101153.31;5115188;28;20470;-65
2023/08/15 03:04:50;;;;;;;8.63;4.65;;;;;;;19.38;79.10;101147.38;5114781;28;20055;-65
2023/08/15 03:07:16;;;;;;;10.88;4.85;;;;;;;19.38;79.33;101154.63;5116391;28;20027;-65
2023/08/15 03:09:41;;;;;;;13.50;5.45;;;;;;;19.28;80.02;101147.41;5114506;28;20036;-65
2023/08/15 03:12:07;;;;;;;8.77;4.50;;;;;;;19.50;80.00;101158.84;5116439;28;20067;-65
2023/08/15 03:14:35;;;;;;;11.45;4.80;;;;;;;19.27;80.69;101145.72;5115872;27;20054;-65
2023/08/15 03:17:02;;;;;;;12.32;4.70;;;;;;;19.41;80.29;101152.50;5116198;28;20261;-65
2023/08/15 03:19:27;;;;;;;11.30;5.25;;;;;;;19.36;80.60;101145.84;5115886;28;20028;-65
2023/08/15 03:21:53;;;;;;;13.40;5.25;;;;;;;19.38;80.46;101150.06;5114599;28;20043;-65
2023/08/15 03:24:18;;;;;;;12.20;4.70;;;;;;;19.24;81.08;101150.56;5114208;28;20027;-65
2023/08/15 03:26:43;;;;;;;11.18;5.40;;;;;;;19.39;80.68;101151.81;5116031;28;20068;-65
2023/08/15 03:29:09;;;;;;;11.70;5.35;;;;;;;19.21;81.65;101146.31;5116136;28;20443;-65
2023/08/15 03:31:34;;;;;;;10.13;4.82;;;;;;;19.24;81.50;101145.19;5115694;28;20172;-65
2023/08/15 03:34:02;;;;;;;13.18;5.40;;;;;;;19.22;81.89;101149.84;5114281;28;20015;-65
2023/08/15 03:36:30;;;;;;;14.55;5.75;;;;;;;19.20;82.03;101152.69;5115737;28;20055;-65
2023/08/15 03:38:55;;;;;;;13.50;5.20;;;;;;;19.22;82.07;101157.94;5115299;28;20046;-65
2023/08/15 03:41:21;;;;;;;14.93;5.50;;;;;;;18.99;82.91;101142.09;5115704;28;20047;-65
2023/08/15 03:43:46;;;;;;;10.23;4.95;;;;;;;19.07;83.02;101165.63;5115527;28;20038;-65
2023/08/15 03:46:12;;;;;;;9.93;4.80;;;;;;;19.21;82.36;101158.97;5115764;28;20073;-65
2023/08/15 03:48:37;;;;;;;10.43;5.05;;;;;;;18.97;83.41;101164.78;5113986;28;20015;-65
2023/08/15 03:51:04;;;;;;;10.55;5.47;;;;;;;19.08;83.13;101177.28;5114242;28;20507;-65
2023/08/15 03:53:29;;;;;;;14.63;5.63;;;;;;;18.94;83.74;101184.81;5113630;28;20034;-65
2023/08/15 03:55:55;;;;;;;11.73;5.60;;;;;;;19.01;83.94;101177.84;5115488;27;20019;-65
2023/08/15 03:58:22;;;;;;;11.25;5.82;;;;;;;18.91;84.28;101174.28;5113911;28;20057;-65
2023/08/15 04:00:48;;;;;;;10.75;5.28;;;;;;;18.82;84.70;101177.84;5115333;28;20103;-65
2023/08/15 04:03:14;;;;;;;14.02;5.97;;;;;;;18.90;84.52;101171.75;5115040;28;20064;-65
2023/08/15 04:05:43;;;;;;;10.63;5.55;;;;;;;18.79;85.03;101175.44;5113945;28;20027;-65
2023/08/15 04:08:09;;;;;;;;;;;;;;;19.10;82.21;101169.91;5114594;28;20023;-65
2023/08/15 04:10:39;;;;;;;11.38;5.93;;;;;;;18.80;84.34;101169.91;5114561;28;19972;-65
2023/08/15 04:13:06;;;;;;;14.98;6.50;;;;;;;18.70;85.32;101173.56;5113937;28;20151;-65
2023/08/15 04:15:32;;;;;;;12.52;6.07;;;;;;;18.58;85.66;101162.91;5114708;28;20039;-65
2023/08/15 04:17:58;;;;;;;12.65;6.35;;;;;;;18.55;86.17;101156.97;5114767;28;20048;-65
2023/08/15 04:20:23;;;;;;;13.20;6.57;;;;;;;18.66;85.82;101153.31;5113507;28;20088;-65
2023/08/15 04:22:48;;;;;;;10.77;6.35;;;;;;;18.47;86.01;101146.03;5113622;28;20051;-65
2023/08/15 04:25:14;;;;;;;15.07;6.53;;;;;;;18.55;86.51;101152.44;5114395;28;20015;-65
2023/08/15 04:27:41;;;;;;;14.85;6.68;;;;;;;18.55;86.29;101160.50;5115010;28;20482;-65
2023/08/15 04:30:08;;;;;;;15.95;5.90;;;;;;;18.42;86.73;101168.03;5114751;28;20019;-65
2023/08/15 04:32:34;;;;;;;12.35;6.45;;;;;;;18.49;86.62;101165.63;5113011;28;20023;-65
2023/08/15 04:34:59;;;;;;;14.88;6.78;;;;;;;18.56;86.01;101180.22;5114510;28;20038;-65
2023/08/15 04:37:24;;;;;;;11.25;6.07;;;;;;;18.32;86.97;101178.78;5113356;28;20038;-65
2023/08/15 04:39:50;;;;;;;12.38;6.82;;;;;;;18.41;86.78;101160.06;5112729;28;20393;-65
2023/08/15 04:42:16;;;;;;;11.10;5.72;;;;;;;18.36;86.91;101166.75;5114550;28;20077;-65
2023/08/15 04:44:41;;;;;;;14.80;6.32;;;;;;;18.30;87.61;101185.31;5114331;28;20068;-65
2023/08/15 04:47:07;;;;;;;13.30;6.50;;;;;;;18.46;87.54;101185.59;5114370;28;20378;-65
2023/08/15 04:49:33;;;;;;;12.18;5.93;;;;;;;18.39;87.46;101179.09;5113980;28;20098;-65
2023/08/15 04:51:59;;;;;;;10.23;5.68;;;;;;;18.48;87.79;101193.56;5112807;28;20466;-65
2023/08/15 04:54:24;;;;;;;12.02;6.15;;;;;;;18.53;87.57;101199.34;5113730;28;20080;-65
2023/08/15 04:56:50;;;;;;;10.95;5.80;;;;;;;18.49;87.54;101203.31;5114191;28;20015;-65
2023/08/15 04:59:20;;;;;;;12.70;5.90;;;;;;;18.49;87.83;101220.34;5112726;28;20382;-65
2023/08/15 05:01:45;;;;;;;14.18;5.80;;;;;;;18.44;87.68;101213.66;5113527;28;20043;-65
2023/08/15 05:04:11;;;;;;;12.93;5.85;;;;;;;18.43;88.16;101226.28;5112541;28;20148;-65
2023/08/15 05:06:36;;;;;;;12.55;5.95;;;;;;;18.55;87.81;101225.16;5114132;28;20020;-65
2023/08/15 05:09:01;;;;;;;9.48;5.50;;;;;;;18.62;87.50;101236.25;5112089;28;20022;-66
2023/08/15 05:11:27;;;;;;;14.15;6.18;;;;;;;18.55;87.87;101237.78;5113857;27;20031;-65
2023/08/15 05:13:54;;;;;;;14.18;6.55;;;;;;;18.46;88.03;101242.16;5112319;28;20489;-65
2023/08/15 05:16:20;;;;;;;13.45;6.00;;;;;;;18.48;88.28;101250.97;5113449;28;20115;-65
2023/08/15 05:18:45;;;;;;;12.40;6.03;;;;;;;18.53;88.05;101251.41;5112260;28;20126;-65
2023/08/15 05:21:11;;;;;;;12.25;6.50;;;;;;;18.47;88.64;101254.66;5112494;28;20030;-65
2023/08/15 05:23:36;;;;;;;11.90;6.65;;;;;;;18.46;88.57;101252.09;5111864;28;20087;-65
2023/08/15 05:26:04;;;;;;;14.00;6.40;;;;;;;18.50;88.60;101264.28;5113600;28;20027;-65
2023/08/15 05:28:29;;;;;;;14.20;6.03;;;;;;;18.54;88.52;101260.34;5113446;28;20020;-65
2023/08/15 05:30:54;;;;;;;13.63;6.53;;;;;;;18.67;88.29;101265.47;5113138;28;20547;-65
2023/08/15 05:33:20;;;;;;;11.30;6.25;;;;;;;18.55;88.60;101265.56;5111994;28;20042;-65
2023/08/15 05:35:45;;;;;;;13.55;7.20;;;;;;;18.55;88.70;101272.81;5113071;28;20092;-65
2023/08/15 05:38:10;;;;;;;13.15;6.78;;;;;;;18.61;88.88;101254.25;5111976;28;20043;-65
2023/08/15 05:40:37;;;;;;;16.52;6.88;;;;;;;18.73;88.43;101256.81;5112914;28;20043;-65
2023/08/15 05:43:02;;;;;;;15.63;7.70;;;;;;;18.70;88.80;101254.41;5113266;28;20035;-65
2023/08/15 05:45:29;;;;;;;14.77;7.18;;;;;;;18.61;89.04;101245.31;5112921;28;20023;-65
2023/08/15 05:47:55;;;;;;;12.73;6.70;;;;;;;18.73;88.67;101252.31;5111911;28;20499;-65
2023/08/15 05:50:20;;;;;;;15.10;7.28;;;;;;;18.81;88.36;101267.78;5112822;28;20047;-65
2023/08/15 05:52:45;;;;;;;15.10;7.45;;;;;;;18.92;88.46;101258.72;5113044;28;20024;-65
2023/08/15 05:55:11;;;;;;;15.23;7.65;;;;;;;18.91;88.49;101276.72;5111396;28;20100;-65
2023/08/15 05:57:36;;;;;;;15.18;7.38;;;;;;;19.02;87.54;101276.59;5113201;28;20462;-65
2023/08/15 06:00:03;;;;;;;17.45;8.05;;;;;;;18.99;87.53;101292.22;5111435;28;20034;-65
2023/08/15 06:02:34;;;;;;;13.13;7.07;;;;;;;19.22;87.00;101290.94;5112818;28;20027;-65
2023/08/15 06:05:00;;;;;;;15.07;7.63;;;;;;;19.24;86.54;101293.50;5112840;28;20041;-65
2023/08/15 06:07:26;;;;;;;13.85;7.18;;;;;;;19.28;87.03;101290.38;5112835;28;20470;-65
2023/08/15 06:09:51;;;;;;;14.75;7.70;;;;;;;19.47;86.22;101284.13;5112185;28;20035;-65
2023/08/15 06:12:16;;;;;;;16.40;7.93;;;;;;;19.51;85.50;101300.88;5112194;28;20051;-65
2023/08/15 06:14:42;;;;;;;14.45;7.80;;;;;;;19.48;85.95;101299.31;5111154;28;20062;-65
2023/08/15 06:17:07;;;;;;;14.23;7.45;;;;;;;19.47;86.14;101313.81;5112923;28;20027;-65
2023/08/15 06:19:33;;;;;;;18.77;8.73;;;;;;;19.54;85.98;101314.06;5111397;28;20085;-65
2023/08/15 06:21:58;;;;;;;17.23;8.40;;;;;;;19.62;85.41;101308.81;5112665;28;20019;-65
2023/08/15 06:24:23;;;;;;;16.27;7.95;;;;;;;19.64;85.23;101311.34;5110849;28;20110;-65
2023/08/15 06:26:49;;;;;;;17.65;8.82;;;;;;;19.63;85.29;101313.19;5112331;28;20428;-65
2023/08/15 06:29:14;;;;;;;14.23;8.05;;;;;;;19.69;85.91;101317.22;5112607;28;20030;-65
2023/08/15 06:31:40;;;;;;;16.80;8.00;;;;;;;19.69;85.00;101328.00;5112624;28;20061;-65
2023/08/15 06:34:05;;;;;;;15.25;7.65;;;;;;;19.80;85.58;101329.69;5111285;28;20434;-65
2023/08/15 06:36:31;;;;;;;15.82;8.40;;;;;;;19.86;85.13;101318.31;5111246;28;20063;-65
2023/08/15 06:38:57;;;;;;;15.25;8.15;;;;;;;19.81;84.95;101316.03;5110602;28;20016;-65
2023/08/15 06:41:22;;;;;;;14.73;8.38;;;;;;;19.84;84.58;101313.06;5111070;28;20077;-65
2023/08/15 06:43:48;;;;;;;15.07;7.55;;;;;;;19.98;84.07;101322.53;5112217;28;20015;-65
2023/08/15 06:46:14;;;;;;;15.05;7.45;;;;;;;20.02;83.79;101323.09;5111170;28;20024;-65
2023/08/15 06:48:40;;;;;;;15.82;7.55;;;;;;;20.07;83.40;101323.53;5111091;28;20123;-65
2023/08/15 06:51:05;;;;;;;16.95;7.43;;;;;;;20.15;83.34;101326.34;5110993;28;20114;-65
2023/08/15 06:53:31;;;;;;;15.10;7.25;;;;;;;20.31;83.32;101337.34;5110380;28;20031;-65
2023/08/15 06:56:00;;;;;;;17.27;7.35;;;;;;;20.33;82.49;101339.91;5112161;28;20466;-65
2023/08/15 06:58:26;;;;;;;11.77;7.03;;;;;;;20.38;82.44;101332.19;5112285;28;20020;-65
2023/08/15 07:00:51;;;;;;;12.27;7.00;;;;;;;20.50;82.14;101330.16;5112221;28;20023;-65
2023/08/15 07:03:18;;;;;;;17.77;7.45;;;;;;;20.59;81.43;101324.75;5112305;28;20382;-65
2023/08/15 07:05:44;;;;;;;15.40;7.22;;;;;;;20.72;81.20;101326.25;5110885;28;20054;-65
2023/08/15 07:08:12;;;;;;;13.60;6.78;;;;;;;20.85;80.07;101337.53;5112520;28;20031;-65
2023/08/15 07:10:38;;;;;;;18.08;6.40;;;;;;;20.98;79.78;101338.03;5110347;28;20173;-65
2023/08/15 07:13:04;;;;;;;13.18;6.80;;;;;;;21.04;78.89;101339.28;5112029;28;20107;-65
2023/08/15 07:15:30;;;;;;;15.75;6.18;;;;;;;21.06;78.34;101335.41;5110527;28;20102;-65
2023/08/15 07:17:55;;;;;;;12.38;5.72;;;;;;;21.05;79.37;101338.25;5112198;28;20024;-65
2023/08/15 07:20:21;;;;;;;12.60;6.30;;;;;;;21.12;79.18;101333.97;5110780;28;20107;-65
2023/08/15 07:22:46;;;;;;;13.60;6.47;;;;;;;21.13;77.68;101342.91;5110911;28;20112;-65
2023/08/15 07:25:12;;;;;;;18.23;7.10;;;;;;;21.20;77.45;101346.69;5113130;28;20023;-65
2023/08/15 07:27:38;;;;;;;14.40;5.72;;;;;;;21.22;78.49;101352.81;5116119;28;20045;-65
2023/08/15 07:30:07;;;;;;;12.40;5.80;;;;;;;21.30;77.83;101353.75;5115620;28;20039;-65
2023/08/15 07:32:38;;;;;;;13.68;5.55;;;;;;;21.42;77.96;101362.50;5115934;28;20023;-66
2023/08/15 07:35:06;;;;;;;11.10;5.57;;;;;;;21.41;77.14;101357.25;5115551;28;20024;-65
2023/08/15 07:37:33;;;;;;;16.08;6.05;;;;;;;21.47;77.46;101365.63;5115770;28;20019;-66
2023/08/15 07:40:09;;;;;;;13.00;6.05;;;;;;;21.44;77.74;101371.34;5113602;28;20030;-65
2023/08/15 07:42:35;;;;;;;12.15;5.68;;;;;;;21.42;77.28;101370.63;5115522;28;20046;-65
2023/08/15 07:45:02;;;;;;;14.07;5.25;;;;;;;21.51;77.45;101361.59;5115421;28;20106;-65
2023/08/15 07:47:28;;;;;;;14.10;5.78;;;;;;;21.43;76.72;101356.09;5115604;28;20024;-65
2023/08/15 07:50:12;;;;;;;11.95;5.50;;;;;;;21.45;77.87;101369.47;5113826;28;20042;-65
2023/08/15 07:52:37;;;;;;;14.23;5.75;;;;;;;21.30;77.64;101356.44;5115736;28;20024;-65
2023/08/15 07:55:03;;;;;;;15.30;5.70;;;;;;;21.33;77.52;101371.53;5113196;28;20179;-65
2023/08/15 07:57:28;;;;;;;11.98;5.72;;;;;;;21.44;77.25;101371.34;5114063;28;20331;-65
2023/08/15 07:59:56;;;;;;;14.50;5.88;;;;;;;21.57;77.20;101380.91;5114030;28;20042;-66
2023/08/15 08:02:21;;;;;;;15.20;5.72;;;;;;;21.73;75.93;101373.78;5114032;28;20478;-65
2023/08/15 08:04:49;;;;;;;12.18;5.05;;;;;;;21.82;76.64;101376.53;5113718;28;20058;-65
2023/08/15 08:07:15;;;;;;;15.10;5.97;;;;;;;21.82;76.17;101366.56;5115302;28;20026;-65
2023/08/15 08:09:40;;;;;;;10.60;5.00;;;;;;;21.85;74.34;101374.38;5112950;28;20023;-65
2023/08/15 08:12:08;;;;;;;12.60;5.20;;;;;;;21.82;75.57;101377.38;5113843;28;20036;-66
2023/08/15 08:14:34;;;;;;;15.98;5.85;;;;;;;21.93;75.16;101362.75;5113318;28;20055;-66
2023/08/15 08:16:59;;;;;;;12.05;5.03;;;;;;;22.15;72.96;101383.06;5113672;28;20033;-66
2023/08/15 08:19:24;;;;;;;13.55;4.75;;;;;;;22.20;72.71;101375.31;5114842;28;20023;-66
2023/08/15 08:21:50;;;;;;;11.13;4.80;;;;;;;;;;5113595;28;20129;-66
2023/08/15 08:24:15;;;;;;;13.40;5.05;;;;;;;22.44;74.52;101377.31;5114040;28;20035;-66
2023/08/15 08:26:40;;;;;;;17.88;4.90;;;;;;;22.47;73.06;101387.00;5113529;28;20462;-65
2023/08/15 08:29:06;;;;;;;9.90;4.70;;;;;;;22.37;71.29;101376.28;5114771;28;20020;-66
2023/08/15 08:31:31;;;;;;;11.82;4.80;;;;;;;22.32;72.22;101382.16;5114662;27;20375;-66
2023/08/15 08:33:57;;;;;;;14.32;5.32;;;;;;;22.31;73.14;101385.91;5114445;28;20026;-65
2023/08/15 08:36:24;;;;;;;11.52;4.05;;;;;;;22.43;72.90;101390.03;5114028;28;20359;-65
2023/08/15 08:38:50;;;;;;;15.30;5.07;;;;;;;22.36;72.60;101382.72;5113686;28;20038;-65
2023/08/15 08:41:16;;;;;;;14.65;4.78;;;;;;;22.43;73.21;101379.19;5114662;28;20416;-65
2023/08/15 08:43:42;;;;;;;10.38;4.30;;;;;;;22.38;72.70;101380.69;5113044;28;20023;-66
2023/08/15 08:46:08;;;;;;;12.63;4.70;;;;;;;22.35;72.25;101399.97;5113319;28;20038;-65
2023/08/15 08:48:34;;;;;;;12.00;4.28;;;;;;;22.33;72.75;101386.59;5112784;28;20023;-65
2023/08/15 08:51:01;;;;;;;15.98;5.15;;;;;;;22.37;73.02;101390.69;5113067;28;20386;-66
2023/08/15 08:53:27;;;;;;;12.35;5.07;;;;;;;22.45;71.91;101377.19;5113486;28;20112;-65
2023/08/15 08:55:55;;;;;;;15.15;4.93;;;;;;;22.60;71.79;101384.72;5112864;28;20031;-65
2023/08/15 08:58:24;;;;;;;14.30;4.80;;;;;;;22.87;71.22;101392.59;5112901;28;20023;-65
2023/08/15 09:00:49;;;;;;;;;;;;;;;23.12;71.69;101395.44;5114601;28;20110;-66
2023/08/15 09:03:15;;;;;;;13.48;4.53;;;;;;;23.31;69.15;101389.72;5114174;28;19946;-66
2023/08/15 09:05:41;;;;;;;11.82;4.25;;;;;;;23.56;70.16;101401.47;5113837;28;20027;-65
2023/08/15 09:08:07;;;;;;;12.23;4.55;;;;;;;23.61;67.22;101389.25;5113835;28;20027;-65
2023/08/15 09:10:32;;;;;;;12.15;4.25;;;;;;;23.62;67.68;101399.94;5113388;28;20118;-66
2023/08/15 09:13:03;;;;;;;12.18;3.90;;;;;;;23.48;68.79;101392.47;5112565;28;20020;-65
2023/08/15 09:15:29;;;;;;;9.23;3.90;;;;;;;23.59;67.84;101392.13;5113512;28;20070;-65
2023/08/15 09:17:59;;;;;;;11.50;4.28;;;;;;;23.77;67.95;101392.84;5112394;28;20453;-65
2023/08/15 09:20:25;;;;;;;14.38;4.00;;;;;;;23.87;67.65;101397.25;5112305;28;20019;-66
2023/08/15 09:22:58;;;;;;;9.23;3.75;;;;;;;23.95;67.67;101399.97;5113436;28;20028;-66
2023/08/15 09:25:25;;;;;;;12.75;4.13;;;;;;;23.90;65.18;101413.22;5113108;28;20024;-66
2023/08/15 09:27:51;;;;;;;10.00;3.60;;;;;;;23.79;67.96;101396.22;5113573;28;20024;-66
2023/08/15 09:30:17;;;;;;;8.25;3.38;;;;;;;23.73;66.92;101418.63;5111975;28;20019;-66
2023/08/15 09:32:45;;;;;;;10.23;3.88;;;;;;;23.72;65.12;101416.94;5113471;28;20024;-66
2023/08/15 09:35:12;;;;;;;10.52;3.33;;;;;;;23.76;65.58;101410.16;5111837;28;20031;-66
2023/08/15 09:37:55;;;;;;;12.70;3.85;;;;;;;23.85;66.38;101419.16;5112319;28;20055;-66
2023/08/15 09:40:25;;;;;;;13.77;3.90;;;;;;;23.60;66.58;101418.28;5111598;28;20027;-66
2023/08/15 09:42:52;;;;;;;12.45;3.78;;;;;;;23.60;66.18;101417.44;5111996;28;20435;-66
2023/08/15 09:45:18;;;;;;;6.97;3.25;;;;;;;23.60;69.22;101420.13;5111794;28;20024;-66
2023/08/15 09:47:44;;;;;;;9.27;3.50;;;;;;;23.55;66.99;101418.75;5112322;28;20041;-66
2023/08/15 09:50:15;;;;;;;11.90;3.78;;;;;;;23.64;66.04;101418.78;5111444;28;20482;-66
2023/08/15 09:52:42;;;;;;;12.75;4.65;;;;;;;23.75;65.96;101421.19;5111867;28;20034;-66
2023/08/15 09:55:15;;;;;;;12.77;4.25;;;;;;;23.91;66.13;101426.63;5112666;28;20473;-66
2023/08/15 09:57:42;;;;;;;16.20;3.45;;;;;;;23.86;67.72;101428.16;5113243;28;20027;-66
2023/08/15 10:00:11;;;;;;;12.63;3.55;;;;;;;23.93;65.13;101435.47;5111728;28;20123;-66
2023/08/15 10:02:43;;;;;;;9.57;3.35;;;;;;;23.74;65.34;101442.09;5113198;28;20031;-66
2023/08/15 10:05:11;;;;;;;7.47;3.30;;;;;;;23.72;65.66;101445.97;5112740;28;20027;-66
2023/08/15 10:07:37;;;;;;;7.13;3.10;;;;;;;23.90;65.46;101446.66;5113111;28;20028;-66
2023/08/15 10:10:05;;;;;;;9.75;3.35;;;;;;;23.86;65.77;101453.47;5110959;28;20024;-66
2023/08/15 10:12:36;;;;;;;10.23;3.80;;;;;;;23.91;66.11;101453.78;5112799;28;20038;-66
2023/08/15 10:15:06;;;;;;;9.07;3.35;;;;;;;24.12;66.18;101458.75;5112495;27;20087;-66
2023/08/15 10:17:31;;;;;;;8.90;3.63;;;;;;;24.09;65.42;101455.50;5112676;28;20065;-66
2023/08/15 10:20:13;;;;;;;10.85;3.65;;;;;;;23.75;65.94;101456.50;5111142;28;20055;-66
2023/08/15 10:22:41;;;;;;;9.60;3.50;;;;;;;23.82;66.46;101448.53;5112841;28;20023;-65
2023/08/15 10:25:22;;;;;;;9.02;3.50;;;;;;;24.10;65.69;101452.63;5112227;28;20027;-65
2023/08/15 10:27:52;;;;;;;9.70;3.08;;;;;;;24.47;63.71;101456.66;5112725;28;20432;-66
2023/08/15 10:30:35;;;;;;;8.60;3.38;;;;;;;24.67;62.71;101448.97;5111126;28;20019;-65
2023/08/15 10:33:13;;;;;;;9.10;3.10;;;;;;;24.54;62.72;101459.56;5112574;28;20027;-65
2023/08/15 10:35:53;;;;;;;8.73;3.55;;;;;;;24.65;62.16;101465.50;5112644;28;20088;-65
2023/08/15 10:38:20;;;;;;;9.73;3.72;;;;;;;24.92;59.70;101469.66;5112514;28;20031;-66
2023/08/15 10:40:46;;;;;;;11.40;3.60;;;;;;;25.24;61.34;101469.72;5112166;28;20020;-66
2023/08/15 10:43:15;;;;;;;10.55;3.28;;;;;;;25.37;59.90;101470.81;5112504;28;20027;-66
2023/08/15 10:45:46;;;;;;;10.13;3.58;;;;;;;25.75;59.69;101475.53;5111013;28;20028;-65
2023/08/15 10:48:12;;;;;;;7.40;3.10;;;;;;;25.95;56.29;101468.59;5112142;28;20035;-66
2023/08/15 10:50:47;;;;;;;12.48;3.58;;;;;;;26.11;56.82;101474.94;5112456;28;20023;-66
2023/08/15 10:53:12;;;;;;;6.53;2.65;;;;;;;25.81;55.11;101462.03;5112389;28;20019;-66
2023/08/15 10:55:39;;;;;;;12.23;3.13;;;;;;;25.78;55.71;101462.38;5110740;28;20030;-66
2023/08/15 10:58:11;;;;;;;8.40;2.92;;;;;;;26.01;55.97;101467.03;5112323;28;20038;-66
2023/08/15 11:00:39;;;;;;;9.50;3.35;;;;;;;26.08;55.75;101461.69;5114874;28;20485;-66
2023/08/15 11:03:06;;;;;;;9.13;2.90;;;;;;;26.27;54.70;101474.81;5114990;28;20052;-66
2023/08/15 11:05:32;;;;;;;11.40;3.13;;;;;;;26.37;56.07;101469.09;5114931;28;20026;-66
2023/08/15 11:08:18;;;;;;;10.75;2.90;;;;;;;26.65;54.80;101467.47;5114945;28;20024;-66
2023/08/15 11:10:48;;;;;;;8.98;3.17;;;;;;;26.58;54.21;101462.94;5114309;28;20035;-66
2023/08/15 11:13:15;;;;;;;9.95;2.80;;;;;;;26.24;53.69;101458.81;5115239;28;20034;-66
2023/08/15 11:15:41;;;;;;;9.02;3.28;;;;;;;26.35;53.75;101450.16;5114597;28;20099;-66
2023/08/15 11:18:06;;;;;;;7.85;2.90;;;;;;;26.71;53.84;101444.88;5114768;28;20118;-66